sensor_id;sensor_type;location;lat;lon;timestamp;P1;durP1;ratioP1;P2;durP2;ratioP2
76196;SDS011;64974;53.144;17.962;2022-12-20T04:01:19;35.13;;;14.93;;
76196;SDS011;64974;53.144;17.962;2022-12-20T04:03:47;40.25;;;13.95;;
76196;SDS011;64974;53.144;17.962;2022-12-20T04:06:13;38.88;;;16.38;;
76196;SDS011;64974;53.144;17.962;2022-12-20T04:08:38;38.08;;;16.92;;
76196;SDS011;64974;53.144;17.962;2022-12-20T04:11:04;37.38;;;14.90;;
76196;SDS011;64974;53.144;17.962;2022-12-20T04:13:48;39.10;;;14.98;;
76196;SDS011;64974;53.144;17.962;2022-12-20T04:16:15;35.38;;;15.32;;
76196;SDS011;64974;53.144;17.962;2022-12-20T04:18:42;41.42;;;15.93;;
76196;SDS011;64974;53.144;17.962;2022-12-20T04:21:08;40.28;;;15.50;;
76196;SDS011;64974;53.144;17.962;2022-12-20T04:23:34;41.50;;;16.05;;
76196;SDS011;64974;53.144;17.962;2022-12-20T04:26:01;38.42;;;16.25;;
76196;SDS011;64974;53.144;17.962;2022-12-20T04:30:53;41.25;;;15.27;;
76196;SDS011;64974;53.144;17.962;2022-12-20T04:33:18;39.30;;;14.77;;
76196;SDS011;64974;53.144;17.962;2022-12-20T04:35:44;34.45;;;14.02;;
76196;SDS011;64974;53.144;17.962;2022-12-20T04:38:09;35.40;;;14.55;;
76196;SDS011;64974;53.144;17.962;2022-12-20T04:40:34;36.40;;;13.93;;
76196;SDS011;64974;53.144;17.962;2022-12-20T04:43:00;34.50;;;13.70;;
76196;SDS011;64974;53.144;17.962;2022-12-20T04:45:25;37.77;;;14.50;;
76196;SDS011;64974;53.144;17.962;2022-12-20T04:47:50;30.58;;;13.68;;
76196;SDS011;64974;53.144;17.962;2022-12-20T04:50:16;40.75;;;14.88;;
76196;SDS011;64974;53.144;17.962;2022-12-20T04:52:43;40.22;;;13.90;;
76196;SDS011;64974;53.144;17.962;2022-12-20T04:55:27;41.58;;;16.25;;
76196;SDS011;64974;53.144;17.962;2022-12-20T04:57:52;42.83;;;15.55;;
76196;SDS011;64974;53.144;17.962;2022-12-20T05:00:17;39.50;;;16.23;;
76196;SDS011;64974;53.144;17.962;2022-12-20T05:02:43;40.05;;;15.13;;
76196;SDS011;64974;53.144;17.962;2022-12-20T05:05:08;40.25;;;16.50;;
76196;SDS011;64974;53.144;17.962;2022-12-20T05:07:34;34.67;;;13.77;;
76196;SDS011;64974;53.144;17.962;2022-12-20T05:09:59;38.92;;;14.93;;
76196;SDS011;64974;53.144;17.962;2022-12-20T05:12:24;33.88;;;13.88;;
76196;SDS011;64974;53.144;17.962;2022-12-20T05:14:50;36.17;;;15.23;;
76196;SDS011;64974;53.144;17.962;2022-12-20T05:17:16;38.70;;;14.98;;
76196;SDS011;64974;53.144;17.962;2022-12-20T05:19:41;34.28;;;13.07;;
76196;SDS011;64974;53.144;17.962;2022-12-20T05:22:07;32.93;;;12.63;;
76196;SDS011;64974;53.144;17.962;2022-12-20T05:24:52;39.42;;;15.13;;
76196;SDS011;64974;53.144;17.962;2022-12-20T05:27:36;34.38;;;14.45;;
76196;SDS011;64974;53.144;17.962;2022-12-20T05:30:02;34.30;;;13.93;;
76196;SDS011;64974;53.144;17.962;2022-12-20T05:32:28;40.30;;;14.95;;
76196;SDS011;64974;53.144;17.962;2022-12-20T05:34:53;34.08;;;13.52;;
76196;SDS011;64974;53.144;17.962;2022-12-20T05:37:19;37.33;;;14.80;;
76196;SDS011;64974;53.144;17.962;2022-12-20T05:39:44;35.03;;;15.20;;
76196;SDS011;64974;53.144;17.962;2022-12-20T05:42:09;36.60;;;14.60;;
76196;SDS011;64974;53.144;17.962;2022-12-20T05:44:36;41.22;;;15.27;;
76196;SDS011;64974;53.144;17.962;2022-12-20T05:47:01;38.50;;;15.33;;
76196;SDS011;64974;53.144;17.962;2022-12-20T05:49:26;31.77;;;14.38;;
76196;SDS011;64974;53.144;17.962;2022-12-20T05:51:52;33.03;;;14.17;;
76196;SDS011;64974;53.144;17.962;2022-12-20T05:54:17;31.30;;;13.17;;
76196;SDS011;64974;53.144;17.962;2022-12-20T05:56:42;38.22;;;14.68;;
76196;SDS011;64974;53.144;17.962;2022-12-20T05:59:08;32.72;;;15.23;;
76196;SDS011;64974;53.144;17.962;2022-12-20T06:01:33;33.10;;;14.83;;
76196;SDS011;64974;53.144;17.962;2022-12-20T06:03:58;31.17;;;15.00;;
76196;SDS011;64974;53.144;17.962;2022-12-20T06:06:24;37.13;;;15.38;;
76196;SDS011;64974;53.144;17.962;2022-12-20T06:08:49;40.67;;;17.37;;
76196;SDS011;64974;53.144;17.962;2022-12-20T06:11:14;40.87;;;17.00;;
76196;SDS011;64974;53.144;17.962;2022-12-20T06:13:40;32.47;;;13.97;;
76196;SDS011;64974;53.144;17.962;2022-12-20T06:16:05;36.20;;;15.07;;
76196;SDS011;64974;53.144;17.962;2022-12-20T06:18:31;40.92;;;17.75;;
76196;SDS011;64974;53.144;17.962;2022-12-20T06:20:56;33.15;;;14.50;;
76196;SDS011;64974;53.144;17.962;2022-12-20T06:23:22;37.00;;;16.40;;
76196;SDS011;64974;53.144;17.962;2022-12-20T06:25:47;35.10;;;14.20;;
76196;SDS011;64974;53.144;17.962;2022-12-20T06:28:13;35.20;;;15.20;;
76196;SDS011;64974;53.144;17.962;2022-12-20T06:30:40;37.00;;;16.52;;
76196;SDS011;64974;53.144;17.962;2022-12-20T06:33:05;37.33;;;15.18;;
76196;SDS011;64974;53.144;17.962;2022-12-20T06:35:30;33.53;;;14.20;;
76196;SDS011;64974;53.144;17.962;2022-12-20T06:37:56;36.65;;;14.18;;
76196;SDS011;64974;53.144;17.962;2022-12-20T06:40:21;35.33;;;13.90;;
76196;SDS011;64974;53.144;17.962;2022-12-20T06:42:47;37.88;;;14.68;;
76196;SDS011;64974;53.144;17.962;2022-12-20T06:45:14;34.55;;;13.82;;
76196;SDS011;64974;53.144;17.962;2022-12-20T06:47:39;32.72;;;14.32;;
76196;SDS011;64974;53.144;17.962;2022-12-20T06:50:05;34.55;;;13.45;;
76196;SDS011;64974;53.144;17.962;2022-12-20T06:52:31;33.47;;;12.82;;
76196;SDS011;64974;53.144;17.962;2022-12-20T06:54:56;36.53;;;13.90;;
76196;SDS011;64974;53.144;17.962;2022-12-20T06:57:22;34.25;;;13.75;;
76196;SDS011;64974;53.144;17.962;2022-12-20T06:59:47;35.47;;;15.05;;
76196;SDS011;64974;53.144;17.962;2022-12-20T07:02:13;33.78;;;14.20;;
76196;SDS011;64974;53.144;17.962;2022-12-20T07:04:38;38.15;;;14.90;;
76196;SDS011;64974;53.144;17.962;2022-12-20T07:07:03;42.15;;;16.83;;
76196;SDS011;64974;53.144;17.962;2022-12-20T07:09:29;42.65;;;22.55;;
76196;SDS011;64974;53.144;17.962;2022-12-20T07:11:55;56.22;;;25.55;;
76196;SDS011;64974;53.144;17.962;2022-12-20T07:14:20;52.10;;;27.17;;
76196;SDS011;64974;53.144;17.962;2022-12-20T07:16:46;37.45;;;17.45;;
76196;SDS011;64974;53.144;17.962;2022-12-20T07:19:12;42.40;;;18.40;;
76196;SDS011;64974;53.144;17.962;2022-12-20T07:21:37;31.73;;;14.00;;
76196;SDS011;64974;53.144;17.962;2022-12-20T07:24:03;34.85;;;13.20;;
76196;SDS011;64974;53.144;17.962;2022-12-20T07:26:28;38.38;;;15.68;;
76196;SDS011;64974;53.144;17.962;2022-12-20T07:28:54;32.70;;;11.98;;
76196;SDS011;64974;53.144;17.962;2022-12-20T07:31:19;35.25;;;13.73;;
76196;SDS011;64974;53.144;17.962;2022-12-20T07:33:44;30.95;;;14.38;;
76196;SDS011;64974;53.144;17.962;2022-12-20T07:36:10;31.50;;;14.55;;
76196;SDS011;64974;53.144;17.962;2022-12-20T07:38:37;31.33;;;15.52;;
76196;SDS011;64974;53.144;17.962;2022-12-20T07:41:06;48.40;;;19.08;;
76196;SDS011;64974;53.144;17.962;2022-12-20T07:43:32;64.57;;;26.55;;
76196;SDS011;64974;53.144;17.962;2022-12-20T07:45:57;58.80;;;27.38;;
76196;SDS011;64974;53.144;17.962;2022-12-20T07:48:23;44.42;;;19.00;;
76196;SDS011;64974;53.144;17.962;2022-12-20T07:50:50;32.05;;;15.20;;
76196;SDS011;64974;53.144;17.962;2022-12-20T07:53:16;37.45;;;16.33;;
76196;SDS011;64974;53.144;17.962;2022-12-20T07:55:42;30.58;;;13.98;;
76196;SDS011;64974;53.144;17.962;2022-12-20T07:58:08;42.15;;;16.27;;
76196;SDS011;64974;53.144;17.962;2022-12-20T08:00:34;36.95;;;14.98;;
76196;SDS011;64974;53.144;17.962;2022-12-20T08:03:06;41.28;;;16.13;;
76196;SDS011;64974;53.144;17.962;2022-12-20T08:05:43;35.42;;;14.68;;
76196;SDS011;64974;53.144;17.962;2022-12-20T08:08:11;33.88;;;14.00;;
76196;SDS011;64974;53.144;17.962;2022-12-20T08:10:37;41.78;;;15.68;;
76196;SDS011;64974;53.144;17.962;2022-12-20T08:13:03;39.20;;;16.88;;
76196;SDS011;64974;53.144;17.962;2022-12-20T08:15:29;36.63;;;15.88;;
76196;SDS011;64974;53.144;17.962;2022-12-20T08:17:55;38.05;;;15.23;;
76196;SDS011;64974;53.144;17.962;2022-12-20T08:20:20;33.77;;;15.23;;
76196;SDS011;64974;53.144;17.962;2022-12-20T08:22:45;34.63;;;15.02;;
76196;SDS011;64974;53.144;17.962;2022-12-20T08:25:11;38.92;;;16.30;;
76196;SDS011;64974;53.144;17.962;2022-12-20T08:27:36;35.80;;;16.90;;
76196;SDS011;64974;53.144;17.962;2022-12-20T08:30:02;36.25;;;16.20;;
76196;SDS011;64974;53.144;17.962;2022-12-20T08:32:28;34.72;;;13.65;;
76196;SDS011;64974;53.144;17.962;2022-12-20T08:34:53;35.53;;;15.73;;
76196;SDS011;64974;53.144;17.962;2022-12-20T08:37:19;39.70;;;17.77;;
76196;SDS011;64974;53.144;17.962;2022-12-20T08:39:44;33.72;;;14.52;;
76196;SDS011;64974;53.144;17.962;2022-12-20T08:42:10;36.10;;;14.82;;
76196;SDS011;64974;53.144;17.962;2022-12-20T08:44:36;37.80;;;14.45;;
76196;SDS011;64974;53.144;17.962;2022-12-20T08:47:01;35.78;;;14.20;;
76196;SDS011;64974;53.144;17.962;2022-12-20T08:49:27;38.03;;;15.57;;
76196;SDS011;64974;53.144;17.962;2022-12-20T08:51:52;34.93;;;14.73;;
76196;SDS011;64974;53.144;17.962;2022-12-20T08:54:17;34.42;;;14.70;;
76196;SDS011;64974;53.144;17.962;2022-12-20T08:56:43;36.20;;;15.43;;
76196;SDS011;64974;53.144;17.962;2022-12-20T08:59:08;41.15;;;17.40;;
76196;SDS011;64974;53.144;17.962;2022-12-20T09:01:34;47.43;;;17.43;;
76196;SDS011;64974;53.144;17.962;2022-12-20T09:03:59;46.03;;;17.00;;
76196;SDS011;64974;53.144;17.962;2022-12-20T09:06:24;46.50;;;17.65;;
76196;SDS011;64974;53.144;17.962;2022-12-20T09:08:50;47.00;;;19.30;;
76196;SDS011;64974;53.144;17.962;2022-12-20T09:11:20;41.03;;;17.73;;
76196;SDS011;64974;53.144;17.962;2022-12-20T09:13:48;42.00;;;16.70;;
76196;SDS011;64974;53.144;17.962;2022-12-20T09:16:15;38.55;;;14.73;;
76196;SDS011;64974;53.144;17.962;2022-12-20T09:18:43;31.42;;;13.13;;
76196;SDS011;64974;53.144;17.962;2022-12-20T09:21:09;38.58;;;15.00;;
76196;SDS011;64974;53.144;17.962;2022-12-20T09:23:35;34.00;;;14.15;;
76196;SDS011;64974;53.144;17.962;2022-12-20T09:26:02;37.72;;;15.02;;
76196;SDS011;64974;53.144;17.962;2022-12-20T09:28:29;39.97;;;15.70;;
76196;SDS011;64974;53.144;17.962;2022-12-20T09:31:02;44.50;;;16.63;;
76196;SDS011;64974;53.144;17.962;2022-12-20T09:33:29;32.67;;;13.40;;
76196;SDS011;64974;53.144;17.962;2022-12-20T09:35:55;34.67;;;14.60;;
76196;SDS011;64974;53.144;17.962;2022-12-20T09:38:21;31.17;;;14.68;;
76196;SDS011;64974;53.144;17.962;2022-12-20T09:40:48;33.65;;;14.13;;
76196;SDS011;64974;53.144;17.962;2022-12-20T09:43:15;37.25;;;14.35;;
76196;SDS011;64974;53.144;17.962;2022-12-20T09:45:41;46.03;;;18.75;;
76196;SDS011;64974;53.144;17.962;2022-12-20T09:48:17;32.80;;;14.13;;
76196;SDS011;64974;53.144;17.962;2022-12-20T09:59:20;29.20;;;14.15;;
76196;SDS011;64974;53.144;17.962;2022-12-20T10:01:47;31.55;;;13.05;;
76196;SDS011;64974;53.144;17.962;2022-12-20T10:12:18;37.92;;;14.30;;
76196;SDS011;64974;53.144;17.962;2022-12-20T10:14:57;26.98;;;13.15;;
76196;SDS011;64974;53.144;17.962;2022-12-20T10:20:20;31.15;;;13.55;;
76196;SDS011;64974;53.144;17.962;2022-12-20T10:22:49;30.48;;;13.90;;
76196;SDS011;64974;53.144;17.962;2022-12-20T10:25:32;34.13;;;13.48;;
76196;SDS011;64974;53.144;17.962;2022-12-20T10:27:59;28.75;;;12.60;;
76196;SDS011;64974;53.144;17.962;2022-12-20T10:30:26;35.17;;;13.95;;
76196;SDS011;64974;53.144;17.962;2022-12-20T10:32:54;37.40;;;15.73;;
76196;SDS011;64974;53.144;17.962;2022-12-20T10:35:32;35.38;;;13.70;;
76196;SDS011;64974;53.144;17.962;2022-12-20T10:38:09;28.90;;;12.70;;
76196;SDS011;64974;53.144;17.962;2022-12-20T10:43:14;34.03;;;13.70;;
76196;SDS011;64974;53.144;17.962;2022-12-20T10:45:44;33.10;;;14.73;;
76196;SDS011;64974;53.144;17.962;2022-12-20T10:50:59;30.00;;;13.07;;
76196;SDS011;64974;53.144;17.962;2022-12-20T10:53:26;30.42;;;13.93;;
76196;SDS011;64974;53.144;17.962;2022-12-20T10:55:53;32.55;;;14.05;;
76196;SDS011;64974;53.144;17.962;2022-12-20T10:58:31;29.75;;;12.48;;
76196;SDS011;64974;53.144;17.962;2022-12-20T11:01:12;33.00;;;14.63;;
76196;SDS011;64974;53.144;17.962;2022-12-20T11:03:56;32.15;;;14.10;;
76196;SDS011;64974;53.144;17.962;2022-12-20T11:06:38;29.27;;;13.43;;
76196;SDS011;64974;53.144;17.962;2022-12-20T11:09:27;32.05;;;12.20;;
76196;SDS011;64974;53.144;17.962;2022-12-20T11:14:23;30.05;;;12.95;;
76196;SDS011;64974;53.144;17.962;2022-12-20T11:16:52;31.88;;;13.73;;
76196;SDS011;64974;53.144;17.962;2022-12-20T11:24:29;44.83;;;18.23;;
76196;SDS011;64974;53.144;17.962;2022-12-20T11:38:39;38.63;;;15.20;;
76196;SDS011;64974;53.144;17.962;2022-12-20T11:44:33;41.50;;;16.75;;
76196;SDS011;64974;53.144;17.962;2022-12-20T11:47:28;32.60;;;13.85;;
76196;SDS011;64974;53.144;17.962;2022-12-20T11:52:51;36.72;;;14.02;;
76196;SDS011;64974;53.144;17.962;2022-12-20T12:00:43;40.20;;;16.40;;
76196;SDS011;64974;53.144;17.962;2022-12-20T12:06:05;43.95;;;17.90;;
76196;SDS011;64974;53.144;17.962;2022-12-20T12:08:52;40.80;;;18.42;;
76196;SDS011;64974;53.144;17.962;2022-12-20T12:11:30;40.75;;;16.05;;
76196;SDS011;64974;53.144;17.962;2022-12-20T12:13:58;39.55;;;16.90;;
76196;SDS011;64974;53.144;17.962;2022-12-20T12:16:27;48.10;;;18.80;;
76196;SDS011;64974;53.144;17.962;2022-12-20T12:18:58;42.08;;;17.08;;
76196;SDS011;64974;53.144;17.962;2022-12-20T12:21:26;42.88;;;19.70;;
76196;SDS011;64974;53.144;17.962;2022-12-20T12:26:27;50.35;;;20.70;;
76196;SDS011;64974;53.144;17.962;2022-12-20T12:28:59;47.78;;;17.88;;
76196;SDS011;64974;53.144;17.962;2022-12-20T12:31:36;39.65;;;17.13;;
76196;SDS011;64974;53.144;17.962;2022-12-20T12:34:05;38.80;;;17.23;;
76196;SDS011;64974;53.144;17.962;2022-12-20T12:39:18;46.75;;;19.52;;
76196;SDS011;64974;53.144;17.962;2022-12-20T12:44:27;43.25;;;18.48;;
76196;SDS011;64974;53.144;17.962;2022-12-20T12:46:58;38.70;;;17.17;;
76196;SDS011;64974;53.144;17.962;2022-12-20T12:49:26;38.42;;;16.73;;
76196;SDS011;64974;53.144;17.962;2022-12-20T12:51:59;36.80;;;16.40;;
76196;SDS011;64974;53.144;17.962;2022-12-20T12:54:38;40.42;;;16.25;;
76196;SDS011;64974;53.144;17.962;2022-12-20T12:57:15;41.30;;;16.85;;
76196;SDS011;64974;53.144;17.962;2022-12-20T12:59:45;39.10;;;16.73;;
76196;SDS011;64974;53.144;17.962;2022-12-20T13:09:56;37.65;;;15.73;;
76196;SDS011;64974;53.144;17.962;2022-12-20T13:17:45;43.80;;;17.73;;
76196;SDS011;64974;53.144;17.962;2022-12-20T13:23:03;42.50;;;17.30;;
76196;SDS011;64974;53.144;17.962;2022-12-20T13:25:38;44.13;;;18.20;;
76196;SDS011;64974;53.144;17.962;2022-12-20T13:30:40;42.55;;;19.17;;
76196;SDS011;64974;53.144;17.962;2022-12-20T13:35:45;45.10;;;17.23;;
76196;SDS011;64974;53.144;17.962;2022-12-20T13:41:39;45.85;;;19.50;;
76196;SDS011;64974;53.144;17.962;2022-12-20T13:49:22;51.97;;;22.55;;
76196;SDS011;64974;53.144;17.962;2022-12-20T13:52:05;50.35;;;22.70;;
76196;SDS011;64974;53.144;17.962;2022-12-20T13:54:53;66.22;;;29.60;;
76196;SDS011;64974;53.144;17.962;2022-12-20T13:57:26;52.72;;;24.92;;
76196;SDS011;64974;53.144;17.962;2022-12-20T13:59:54;59.97;;;26.15;;
76196;SDS011;64974;53.144;17.962;2022-12-20T14:02:28;48.65;;;22.05;;
76196;SDS011;64974;53.144;17.962;2022-12-20T14:05:00;48.50;;;21.70;;
76196;SDS011;64974;53.144;17.962;2022-12-20T14:07:29;48.10;;;19.05;;
76196;SDS011;64974;53.144;17.962;2022-12-20T14:09:56;45.40;;;22.38;;
76196;SDS011;64974;53.144;17.962;2022-12-20T14:12:23;50.58;;;23.33;;
76196;SDS011;64974;53.144;17.962;2022-12-20T14:14:49;42.70;;;21.48;;
76196;SDS011;64974;53.144;17.962;2022-12-20T14:17:29;44.47;;;20.50;;
76196;SDS011;64974;53.144;17.962;2022-12-20T14:22:36;44.53;;;19.45;;
76196;SDS011;64974;53.144;17.962;2022-12-20T14:25:02;49.35;;;20.55;;
76196;SDS011;64974;53.144;17.962;2022-12-20T14:27:29;61.08;;;24.67;;
76196;SDS011;64974;53.144;17.962;2022-12-20T14:29:58;52.67;;;20.83;;
76196;SDS011;64974;53.144;17.962;2022-12-20T14:32:24;68.55;;;27.55;;
76196;SDS011;64974;53.144;17.962;2022-12-20T14:34:49;52.63;;;21.20;;
76196;SDS011;64974;53.144;17.962;2022-12-20T14:37:17;45.85;;;19.20;;
76196;SDS011;64974;53.144;17.962;2022-12-20T14:40:02;63.25;;;24.63;;
76196;SDS011;64974;53.144;17.962;2022-12-20T14:42:32;61.42;;;26.02;;
76196;SDS011;64974;53.144;17.962;2022-12-20T14:48:03;41.28;;;18.23;;
76196;SDS011;64974;53.144;17.962;2022-12-20T14:50:34;50.90;;;21.77;;
76196;SDS011;64974;53.144;17.962;2022-12-20T14:53:01;58.55;;;33.92;;
76196;SDS011;64974;53.144;17.962;2022-12-20T14:57:56;44.30;;;17.90;;
76196;SDS011;64974;53.144;17.962;2022-12-20T15:00:23;40.78;;;19.17;;
76196;SDS011;64974;53.144;17.962;2022-12-20T15:08:11;47.92;;;18.33;;
76196;SDS011;64974;53.144;17.962;2022-12-20T15:10:41;45.05;;;18.90;;
76196;SDS011;64974;53.144;17.962;2022-12-20T15:13:15;52.03;;;20.80;;
76196;SDS011;64974;53.144;17.962;2022-12-20T15:15:42;57.10;;;23.95;;
76196;SDS011;64974;53.144;17.962;2022-12-20T15:18:11;48.50;;;21.35;;
76196;SDS011;64974;53.144;17.962;2022-12-20T15:20:40;43.88;;;16.67;;
76196;SDS011;64974;53.144;17.962;2022-12-20T15:23:11;42.25;;;19.40;;
76196;SDS011;64974;53.144;17.962;2022-12-20T15:25:38;40.53;;;18.02;;
76196;SDS011;64974;53.144;17.962;2022-12-20T15:28:09;50.30;;;19.98;;
76196;SDS011;64974;53.144;17.962;2022-12-20T15:30:37;60.97;;;24.63;;
76196;SDS011;64974;53.144;17.962;2022-12-20T15:33:02;71.85;;;29.23;;
76196;SDS011;64974;53.144;17.962;2022-12-20T15:35:28;58.33;;;24.17;;
76196;SDS011;64974;53.144;17.962;2022-12-20T15:37:54;64.57;;;28.23;;
76196;SDS011;64974;53.144;17.962;2022-12-20T15:40:19;52.70;;;22.63;;
76196;SDS011;64974;53.144;17.962;2022-12-20T15:42:44;52.13;;;23.15;;
76196;SDS011;64974;53.144;17.962;2022-12-20T15:45:11;57.03;;;26.33;;
76196;SDS011;64974;53.144;17.962;2022-12-20T15:47:37;66.60;;;30.00;;
76196;SDS011;64974;53.144;17.962;2022-12-20T15:50:03;70.07;;;31.87;;
76196;SDS011;64974;53.144;17.962;2022-12-20T15:52:29;55.83;;;27.45;;
76196;SDS011;64974;53.144;17.962;2022-12-20T15:54:54;50.15;;;22.13;;
76196;SDS011;64974;53.144;17.962;2022-12-20T15:57:19;59.70;;;27.97;;
76196;SDS011;64974;53.144;17.962;2022-12-20T15:59:45;54.95;;;22.45;;
76196;SDS011;64974;53.144;17.962;2022-12-20T16:02:23;54.22;;;22.73;;
76196;SDS011;64974;53.144;17.962;2022-12-20T16:04:50;50.97;;;21.63;;
76196;SDS011;64974;53.144;17.962;2022-12-20T16:07:16;61.45;;;24.73;;
76196;SDS011;64974;53.144;17.962;2022-12-20T16:09:42;42.88;;;20.70;;
76196;SDS011;64974;53.144;17.962;2022-12-20T16:12:12;48.80;;;19.58;;
76196;SDS011;64974;53.144;17.962;2022-12-20T16:14:40;54.97;;;23.05;;
76196;SDS011;64974;53.144;17.962;2022-12-20T16:17:07;56.20;;;21.90;;
76196;SDS011;64974;53.144;17.962;2022-12-20T16:19:36;58.60;;;24.35;;
76196;SDS011;64974;53.144;17.962;2022-12-20T16:22:02;63.03;;;25.83;;
76196;SDS011;64974;53.144;17.962;2022-12-20T16:24:27;72.47;;;27.50;;
76196;SDS011;64974;53.144;17.962;2022-12-20T16:26:53;70.23;;;27.80;;
76196;SDS011;64974;53.144;17.962;2022-12-20T16:29:18;63.67;;;24.13;;
76196;SDS011;64974;53.144;17.962;2022-12-20T16:31:43;61.88;;;26.27;;
76196;SDS011;64974;53.144;17.962;2022-12-20T16:34:11;57.47;;;25.85;;
76196;SDS011;64974;53.144;17.962;2022-12-20T16:36:38;50.65;;;22.25;;
76196;SDS011;64974;53.144;17.962;2022-12-20T16:39:03;64.47;;;25.05;;
76196;SDS011;64974;53.144;17.962;2022-12-20T16:41:30;65.45;;;25.75;;
76196;SDS011;64974;53.144;17.962;2022-12-20T16:43:57;59.28;;;24.30;;
76196;SDS011;64974;53.144;17.962;2022-12-20T16:46:24;58.45;;;20.75;;
76196;SDS011;64974;53.144;17.962;2022-12-20T16:48:51;53.47;;;23.60;;
76196;SDS011;64974;53.144;17.962;2022-12-20T16:51:27;50.97;;;22.00;;
76196;SDS011;64974;53.144;17.962;2022-12-20T16:53:58;60.78;;;22.55;;
76196;SDS011;64974;53.144;17.962;2022-12-20T16:56:26;61.47;;;23.30;;
76196;SDS011;64974;53.144;17.962;2022-12-20T16:58:52;57.63;;;25.80;;
76196;SDS011;64974;53.144;17.962;2022-12-20T17:01:21;67.03;;;27.27;;
76196;SDS011;64974;53.144;17.962;2022-12-20T17:03:48;55.78;;;24.00;;
76196;SDS011;64974;53.144;17.962;2022-12-20T17:06:14;54.67;;;23.15;;
76196;SDS011;64974;53.144;17.962;2022-12-20T17:08:40;59.97;;;24.25;;
76196;SDS011;64974;53.144;17.962;2022-12-20T17:13:38;56.80;;;24.17;;
76196;SDS011;64974;53.144;17.962;2022-12-20T17:16:04;67.90;;;28.10;;
76196;SDS011;64974;53.144;17.962;2022-12-20T17:18:29;66.72;;;27.25;;
76196;SDS011;64974;53.144;17.962;2022-12-20T17:20:55;63.15;;;25.58;;
76196;SDS011;64974;53.144;17.962;2022-12-20T17:23:20;57.58;;;24.15;;
76196;SDS011;64974;53.144;17.962;2022-12-20T17:25:46;68.45;;;27.83;;
76196;SDS011;64974;53.144;17.962;2022-12-20T17:28:11;59.65;;;25.33;;
76196;SDS011;64974;53.144;17.962;2022-12-20T17:30:36;59.33;;;25.23;;
76196;SDS011;64974;53.144;17.962;2022-12-20T17:33:02;54.08;;;22.25;;
76196;SDS011;64974;53.144;17.962;2022-12-20T17:35:28;51.50;;;20.90;;
76196;SDS011;64974;53.144;17.962;2022-12-20T17:37:55;48.08;;;22.25;;
76196;SDS011;64974;53.144;17.962;2022-12-20T17:40:22;52.22;;;21.58;;
76196;SDS011;64974;53.144;17.962;2022-12-20T17:42:48;53.88;;;21.65;;
76196;SDS011;64974;53.144;17.962;2022-12-20T17:45:25;61.13;;;23.77;;
76196;SDS011;64974;53.144;17.962;2022-12-20T17:47:52;54.85;;;23.42;;
76196;SDS011;64974;53.144;17.962;2022-12-20T17:50:19;50.80;;;23.52;;
76196;SDS011;64974;53.144;17.962;2022-12-20T17:52:45;56.28;;;23.10;;
76196;SDS011;64974;53.144;17.962;2022-12-20T17:55:15;49.97;;;21.52;;
76196;SDS011;64974;53.144;17.962;2022-12-20T17:57:58;56.70;;;22.58;;
76196;SDS011;64974;53.144;17.962;2022-12-20T18:00:25;59.28;;;25.05;;
76196;SDS011;64974;53.144;17.962;2022-12-20T18:02:53;61.10;;;23.42;;
76196;SDS011;64974;53.144;17.962;2022-12-20T18:05:19;63.35;;;24.17;;
76196;SDS011;64974;53.144;17.962;2022-12-20T18:07:51;57.28;;;23.35;;
76196;SDS011;64974;53.144;17.962;2022-12-20T18:10:17;56.67;;;22.27;;
76196;SDS011;64974;53.144;17.962;2022-12-20T18:12:43;53.60;;;21.52;;
76196;SDS011;64974;53.144;17.962;2022-12-20T18:15:09;58.35;;;21.77;;
76196;SDS011;64974;53.144;17.962;2022-12-20T18:17:35;56.28;;;22.33;;
76196;SDS011;64974;53.144;17.962;2022-12-20T18:22:26;52.87;;;21.90;;
76196;SDS011;64974;53.144;17.962;2022-12-20T18:24:51;49.67;;;21.38;;
76196;SDS011;64974;53.144;17.962;2022-12-20T18:27:17;57.17;;;21.60;;
76196;SDS011;64974;53.144;17.962;2022-12-20T18:29:42;49.53;;;21.30;;
76196;SDS011;64974;53.144;17.962;2022-12-20T18:32:07;47.50;;;20.45;;
76196;SDS011;64974;53.144;17.962;2022-12-20T18:34:33;52.85;;;20.35;;
76196;SDS011;64974;53.144;17.962;2022-12-20T18:36:59;52.92;;;20.70;;
76196;SDS011;64974;53.144;17.962;2022-12-20T18:39:25;55.33;;;21.92;;
76196;SDS011;64974;53.144;17.962;2022-12-20T18:41:51;52.42;;;22.70;;
76196;SDS011;64974;53.144;17.962;2022-12-20T18:44:16;56.78;;;22.63;;
76196;SDS011;64974;53.144;17.962;2022-12-20T18:46:41;56.07;;;23.63;;
76196;SDS011;64974;53.144;17.962;2022-12-20T18:49:07;51.78;;;21.45;;
76196;SDS011;64974;53.144;17.962;2022-12-20T18:51:33;44.63;;;21.15;;
76196;SDS011;64974;53.144;17.962;2022-12-20T18:54:03;49.80;;;20.85;;
76196;SDS011;64974;53.144;17.962;2022-12-20T18:56:33;57.63;;;22.45;;
76196;SDS011;64974;53.144;17.962;2022-12-20T18:59:00;59.15;;;23.85;;
76196;SDS011;64974;53.144;17.962;2022-12-20T19:01:27;54.83;;;21.63;;
76196;SDS011;64974;53.144;17.962;2022-12-20T19:03:54;59.83;;;22.55;;
76196;SDS011;64974;53.144;17.962;2022-12-20T19:06:20;51.25;;;22.13;;
76196;SDS011;64974;53.144;17.962;2022-12-20T19:08:46;57.00;;;21.85;;
76196;SDS011;64974;53.144;17.962;2022-12-20T19:11:12;61.88;;;25.92;;
76196;SDS011;64974;53.144;17.962;2022-12-20T19:13:41;59.80;;;23.75;;
76196;SDS011;64974;53.144;17.962;2022-12-20T19:16:10;52.53;;;22.23;;
76196;SDS011;64974;53.144;17.962;2022-12-20T19:18:42;57.80;;;23.33;;
76196;SDS011;64974;53.144;17.962;2022-12-20T19:23:33;55.77;;;23.00;;
76196;SDS011;64974;53.144;17.962;2022-12-20T19:26:00;54.42;;;21.00;;
76196;SDS011;64974;53.144;17.962;2022-12-20T19:28:27;56.85;;;23.65;;
76196;SDS011;64974;53.144;17.962;2022-12-20T19:30:52;55.58;;;21.27;;
76196;SDS011;64974;53.144;17.962;2022-12-20T19:33:19;61.08;;;25.50;;
76196;SDS011;64974;53.144;17.962;2022-12-20T19:35:45;60.50;;;22.23;;
76196;SDS011;64974;53.144;17.962;2022-12-20T19:38:10;52.42;;;22.08;;
76196;SDS011;64974;53.144;17.962;2022-12-20T19:40:35;58.85;;;23.00;;
76196;SDS011;64974;53.144;17.962;2022-12-20T19:43:01;54.08;;;22.85;;
76196;SDS011;64974;53.144;17.962;2022-12-20T19:45:26;55.20;;;21.60;;
76196;SDS011;64974;53.144;17.962;2022-12-20T19:47:52;56.30;;;21.70;;
76196;SDS011;64974;53.144;17.962;2022-12-20T19:50:18;54.17;;;22.30;;
76196;SDS011;64974;53.144;17.962;2022-12-20T19:52:43;49.75;;;22.45;;
76196;SDS011;64974;53.144;17.962;2022-12-20T19:55:09;67.55;;;27.35;;
76196;SDS011;64974;53.144;17.962;2022-12-20T19:57:34;74.03;;;32.67;;
76196;SDS011;64974;53.144;17.962;2022-12-20T19:59:59;59.58;;;26.25;;
76196;SDS011;64974;53.144;17.962;2022-12-20T20:02:25;55.20;;;22.38;;
76196;SDS011;64974;53.144;17.962;2022-12-20T20:04:50;55.60;;;22.88;;
76196;SDS011;64974;53.144;17.962;2022-12-20T20:07:16;50.90;;;22.40;;
76196;SDS011;64974;53.144;17.962;2022-12-20T20:09:41;50.00;;;20.92;;
76196;SDS011;64974;53.144;17.962;2022-12-20T20:12:06;51.03;;;21.10;;